This is the latest recevied weather packets stored in our database for station/object DL3MEB-6. If no packets are shown the sender has not sent any weather packets the latest 10 day(s).
| Time | Temp. | Humidity | Pressure | Rain* | Wind** | Luminosity | Snow |
|---|---|---|---|---|---|---|---|
| 1778184359 | 11.67° C | 74% | 1015.7 hPa | 0 mm | - | - | - |
| 1778183450 | 12.22° C | 73% | 1015.6 hPa | 0 mm | - | - | - |
| 1778182543 | 12.22° C | 72% | 1015.3 hPa | 0 mm | - | - | - |
| 1778181630 | 12.22° C | 72% | 1015.2 hPa | 0 mm | - | - | - |
| 1778180725 | 12.22° C | 72% | 1015.2 hPa | 0 mm | - | - | - |
| 1778179815 | 12.78° C | 72% | 1014.9 hPa | 0 mm | - | - | - |
| 1778178906 | 12.78° C | 71% | 1014.8 hPa | 0 mm | - | - | - |
| 1778177998 | 12.78° C | 70% | 1014.7 hPa | 0 mm | - | - | - |
| 1778177086 | 13.33° C | 69% | 1014.4 hPa | 0 mm | - | - | - |
| 1778176174 | 13.89° C | 67% | 1014.3 hPa | 0 mm | - | - | - |
| 1778175274 | 13.89° C | 65% | 1014.2 hPa | 0 mm | - | - | - |
| 1778174369 | 14.44° C | 64% | 1014.1 hPa | 0 mm | - | - | - |
| 1778173464 | 14.44° C | 62% | 1013.9 hPa | 0 mm | - | - | - |
| 1778172550 | 15° C | 62% | 1013.9 hPa | 0 mm | - | - | - |
| 1778171642 | 16.11° C | 59% | 1013.5 hPa | 0 mm | - | - | - |
| 1778170733 | 16.67° C | 57% | 1013.5 hPa | 0 mm | - | - | - |
| 1778169824 | 16.11° C | 58% | 1013.6 hPa | 0 mm | - | - | - |
| 1778168916 | 16.11° C | 58% | 1013.6 hPa | 0 mm | - | - | - |
| 1778168008 | 15.56° C | 58% | 1013.5 hPa | 0 mm | - | - | - |
| 1778167105 | 15.56° C | 58% | 1013.4 hPa | 0 mm | - | - | - |
| 1778166195 | 15.56° C | 58% | 1013.4 hPa | 0 mm | - | - | - |
| 1778165280 | 15.56° C | 57% | 1013.4 hPa | 0 mm | - | - | - |
| 1778164383 | 15.56° C | 60% | 1013.5 hPa | 0 mm | - | - | - |
| 1778164379 | 15.56° C | 60% | 1013.5 hPa | 0 mm | - | - | - |
| 1778163475 | 15° C | 62% | 1013.5 hPa | 0 mm | - | - | - |
* Rain latest hour (hover to see other rain measurements)
** Current wind speed in m/s (hover to see current wind gust speed)